Time;durP1;ratioP1;P1;durP2;ratioP2;P2;SDS_P1;SDS_P2;PMS_P1;PMS_P2;Temp;Humidity;BMP_temperature;BMP_pressure;BME280_temperature;BME280_humidity;BME280_pressure;Samples;Min_cycle;Max_cycle;Signal;HPM_P1;HPM_P2
2023/05/09 00:01:14;;;;;;;6.00;5.50;;;;;;;;;;4994807;28;20528;-60
2023/05/09 00:03:43;;;;;;;5.40;5.20;;;;;;;;;;4994471;28;20572;-60
2023/05/09 00:06:10;;;;;;;7.90;5.73;;;;;;;;;;4994583;28;20445;-60
2023/05/09 00:08:36;;;;;;;6.23;4.90;;;;;;;;;;4994589;28;20429;-61
2023/05/09 00:11:03;;;;;;;5.97;5.67;;;;;;;;;;4994663;28;20455;-61
2023/05/09 00:13:29;;;;;;;5.73;5.40;;;;;;;;;;4994483;28;20418;-60
2023/05/09 00:15:56;;;;;;;12.33;5.67;;;;;;;;;;4994463;28;20463;-60
2023/05/09 00:18:22;;;;;;;5.77;5.50;;;;;;;;;;4994480;28;20781;-60
2023/05/09 00:20:48;;;;;;;5.80;5.30;;;;;;;;;;4994226;28;20953;-61
2023/05/09 00:23:14;;;;;;;6.13;5.83;;;;;;;;;;4994711;28;20449;-60
2023/05/09 00:25:40;;;;;;;5.10;5.00;;;;;;;;;;4994087;28;20440;-61
2023/05/09 00:28:06;;;;;;;5.60;5.40;;;;;;;;;;4994305;28;20440;-60
2023/05/09 00:30:32;;;;;;;4.93;4.83;;;;;;;;;;4994275;28;20903;-60
2023/05/09 00:32:58;;;;;;;5.30;5.00;;;;;;;;;;4994190;28;20424;-60
2023/05/09 00:35:24;;;;;;;6.77;5.00;;;;;;;;;;4994078;28;20831;-60
2023/05/09 00:37:50;;;;;;;4.93;4.70;;;;;;;;;;4994178;28;20503;-61
2023/05/09 00:40:18;;;;;;;5.43;5.23;;;;;;;;;;4993913;28;20595;-59
2023/05/09 00:42:44;;;;;;;4.90;4.80;;;;;;;;;;4993940;28;20561;-61
2023/05/09 00:45:11;;;;;;;5.13;4.93;;;;;;;;;;4992715;28;20492;-61
2023/05/09 00:47:37;;;;;;;5.37;4.80;;;;;;;;;;4993936;28;20429;-60
2023/05/09 00:50:04;;;;;;;5.60;5.20;;;;;;;;;;4992699;28;20528;-61
2023/05/09 00:52:30;;;;;;;6.53;5.23;;;;;;;;;;4993732;28;20513;-60
2023/05/09 00:54:58;;;;;;;5.47;5.00;;;;;;;;;;4993794;28;20523;-61
2023/05/09 00:57:24;;;;;;;6.20;4.23;;;;;;;;;;4993716;28;20480;-61
2023/05/09 00:59:50;;;;;;;5.33;5.03;;;;;;;;;;4993708;28;20503;-60
2023/05/09 01:02:19;;;;;;;8.33;5.37;;;;;;;;;;4993743;28;20416;-61
2023/05/09 01:04:46;;;;;;;7.83;5.00;;;;;;;;;;4993512;28;20535;-60
2023/05/09 01:07:27;;;;;;;5.10;4.90;;;;;;;;;;4993481;28;21040;-61
2023/05/09 01:10:00;;;;;;;5.50;5.10;;;;;;;;;;4993612;28;20416;-60
2023/05/09 01:12:44;;;;;;;7.90;5.27;;;;;;;;;;4993502;28;20441;-60
2023/05/09 01:15:20;;;;;;;4.80;4.50;;;;;;;;;;4992867;28;20979;-60
2023/05/09 01:17:46;;;;;;;4.90;4.70;;;;;;;;;;4993262;28;20954;-60
2023/05/09 01:20:27;;;;;;;5.10;4.47;;;;;;;;;;4993425;28;20452;-60
2023/05/09 01:23:06;;;;;;;5.70;4.90;;;;;;;;;;4993198;28;20428;-60
2023/05/09 01:25:35;;;;;;;4.63;4.43;;;;;;;;;;4993346;28;20884;-60
2023/05/09 01:28:13;;;;;;;4.33;4.03;;;;;;;;;;4993263;28;20432;-61
2023/05/09 01:30:39;;;;;;;8.20;4.93;;;;;;;;;;4993597;28;20579;-60
2023/05/09 01:33:06;;;;;;;5.23;4.83;;;;;;;;;;4993105;28;20443;-60
2023/05/09 01:35:35;;;;;;;4.80;4.70;;;;;;;;;;4993148;28;20471;-61
2023/05/09 01:38:05;;;;;;;4.40;4.20;;;;;;;;;;4993275;28;20411;-60
2023/05/09 01:40:33;;;;;;;7.00;4.93;;;;;;;;;;4992879;28;20475;-60
2023/05/09 01:43:02;;;;;;;5.90;4.83;;;;;;;;;;4991672;28;20420;-61
2023/05/09 01:45:29;;;;;;;8.73;5.10;;;;;;;;;;4992765;28;20919;-61
2023/05/09 01:47:56;;;;;;;8.60;5.37;;;;;;;;;;4993004;28;20507;-60
2023/05/09 01:50:22;;;;;;;5.10;4.90;;;;;;;;;;4992601;28;20453;-61
2023/05/09 01:52:49;;;;;;;4.67;4.57;;;;;;;;;;4992632;28;20488;-60
2023/05/09 01:55:15;;;;;;;4.90;4.60;;;;;;;;;;4992792;28;20446;-60
2023/05/09 01:57:42;;;;;;;5.93;5.30;;;;;;;;;;4992667;28;20850;-60
2023/05/09 02:00:09;;;;;;;7.93;5.27;;;;;;;;;;4991397;28;20522;-60
2023/05/09 02:02:35;;;;;;;4.47;4.27;;;;;;;;;;4992579;28;20508;-61
2023/05/09 02:05:02;;;;;;;4.87;4.67;;;;;;;;;;4992685;28;20816;-60
2023/05/09 02:07:29;;;;;;;5.57;5.27;;;;;;;;;;4992599;28;20478;-60
2023/05/09 02:09:55;;;;;;;5.90;4.70;;;;;;;;;;4992882;28;20427;-60
2023/05/09 02:12:26;;;;;;;5.50;5.20;;;;;;;;;;4992934;28;20424;-60
2023/05/09 02:14:52;;;;;;;4.70;4.60;;;;;;;;;;4992701;28;20478;-60
2023/05/09 02:17:18;;;;;;;6.47;5.13;;;;;;;;;;4992520;28;20432;-60
2023/05/09 02:19:44;;;;;;;5.07;4.10;;;;;;;;;;4992473;28;20472;-60
2023/05/09 02:22:11;;;;;;;6.70;4.93;;;;;;;;;;4992424;28;20442;-60
2023/05/09 02:24:40;;;;;;;4.80;4.60;;;;;;;;;;4992559;28;20440;-60
2023/05/09 02:27:06;;;;;;;4.47;4.37;;;;;;;;;;4994045;28;20550;-60
2023/05/09 02:29:41;;;;;;;4.33;4.17;;;;;;;;;;4996354;28;20922;-60
2023/05/09 02:32:12;;;;;;;4.87;4.57;;;;;;;;;;4996261;28;20445;-61
2023/05/09 02:34:38;;;;;;;6.77;4.80;;;;;;;;;;4996182;28;20440;-61
2023/05/09 02:37:07;;;;;;;3.80;3.60;;;;;;;;;;4994993;28;20439;-61
2023/05/09 02:39:36;;;;;;;4.33;4.13;;;;;;;;;;4996329;28;20503;-60
2023/05/09 02:42:11;;;;;;;4.57;4.27;;;;;;;;;;4994901;28;20582;-60
2023/05/09 02:44:40;;;;;;;4.93;4.60;;;;;;;;;;4996141;28;20413;-60
2023/05/09 02:47:07;;;;;;;6.50;5.37;;;;;;;;;;4995811;28;20443;-60
2023/05/09 02:49:33;;;;;;;5.80;4.27;;;;;;;;;;4995986;28;20426;-60
2023/05/09 02:52:00;;;;;;;5.00;4.57;;;;;;;;;;4995897;28;20440;-60
2023/05/09 02:54:26;;;;;;;5.47;4.97;;;;;;;;;;4996116;28;20504;-61
2023/05/09 02:56:52;;;;;;;4.47;4.37;;;;;;;;;;4996104;28;20518;-60
2023/05/09 02:59:20;;;;;;;4.37;4.17;;;;;;;;;;4995873;28;20876;-61
2023/05/09 03:01:46;;;;;;;4.30;4.20;;;;;;;;;;4995643;28;20407;-61
2023/05/09 03:04:12;;;;;;;4.10;3.90;;;;;;;;;;4995615;28;20830;-61
2023/05/09 03:06:38;;;;;;;5.17;4.53;;;;;;;;;;4995588;28;20424;-61
2023/05/09 03:09:04;;;;;;;4.10;3.90;;;;;;;;;;4995470;28;20411;-60
2023/05/09 03:11:30;;;;;;;4.10;3.93;;;;;;;;;;4995656;28;20495;-61
2023/05/09 03:13:56;;;;;;;3.90;3.80;;;;;;;;;;4995628;28;20450;-60
2023/05/09 03:16:25;;;;;;;4.13;4.03;;;;;;;;;;4995389;28;20418;-60
2023/05/09 03:18:51;;;;;;;5.90;4.00;;;;;;;;;;4995635;28;20473;-60
2023/05/09 03:21:17;;;;;;;6.90;4.23;;;;;;;;;;4995466;28;20450;-60
2023/05/09 03:23:45;;;;;;;3.13;3.13;;;;;;;;;;4995562;28;20447;-60
2023/05/09 03:26:11;;;;;;;5.10;3.87;;;;;;;;;;4995180;28;20429;-60
2023/05/09 03:28:40;;;;;;;4.23;3.90;;;;;;;;;;4995505;28;20466;-60
2023/05/09 03:31:06;;;;;;;3.77;3.57;;;;;;;;;;4995253;28;20435;-60
2023/05/09 03:33:34;;;;;;;4.33;4.23;;;;;;;;;;4994217;28;20744;-60
2023/05/09 03:36:00;;;;;;;4.03;3.87;;;;;;;;;;4995193;28;20439;-60
2023/05/09 03:38:26;;;;;;;4.33;4.00;;;;;;;;;;4994677;28;20411;-60
2023/05/09 03:40:55;;;;;;;5.90;3.93;;;;;;;;;;4994992;28;20552;-60
2023/05/09 03:43:23;;;;;;;3.97;3.60;;;;;;;;;;4993861;28;20910;-60
2023/05/09 03:45:49;;;;;;;6.40;4.20;;;;;;;;;;4994982;28;20798;-60
2023/05/09 03:48:15;;;;;;;4.43;4.23;;;;;;;;;;4994967;28;20438;-60
2023/05/09 03:50:41;;;;;;;6.37;4.23;;;;;;;;;;4994992;28;20442;-60
2023/05/09 03:53:09;;;;;;;4.43;4.33;;;;;;;;;;4994963;28;20525;-60
2023/05/09 03:55:35;;;;;;;4.63;4.27;;;;;;;;;;4994270;28;20932;-60
2023/05/09 03:58:01;;;;;;;4.40;4.20;;;;;;;;;;4993360;28;20439;-60
2023/05/09 04:00:27;;;;;;;4.70;4.40;;;;;;;;;;4995145;28;20486;-61
2023/05/09 04:02:55;;;;;;;5.17;4.77;;;;;;;;;;4994847;28;20887;-59
2023/05/09 04:05:21;;;;;;;8.87;4.60;;;;;;;;;;4994627;28;20431;-60
2023/05/09 04:07:47;;;;;;;4.17;4.07;;;;;;;;;;4994968;28;20411;-60
2023/05/09 04:10:16;;;;;;;6.50;6.20;;;;;;;;;;4994572;28;20432;-60
2023/05/09 04:12:41;;;;;;;10.25;9.55;;;;;;;;;;4993818;28;20409;-60
2023/05/09 04:15:08;;;;;;;27.37;24.47;;;;;;;;;;4994441;28;20191;-61
2023/05/09 04:17:34;;;;;;;8.73;7.87;;;;;;;;;;4994487;28;20424;-61
2023/05/09 04:20:00;;;;;;;5.37;5.10;;;;;;;;;;4994225;28;20973;-61
2023/05/09 04:22:26;;;;;;;5.60;5.20;;;;;;;;;;4994429;28;20407;-62
2023/05/09 04:24:57;;;;;;;4.47;4.17;;;;;;;;;;4994275;28;20412;-60
2023/05/09 04:27:23;;;;;;;4.10;3.90;;;;;;;;;;4993002;28;20555;-61
2023/05/09 04:29:49;;;;;;;3.80;3.70;;;;;;;;;;4993889;28;20775;-61
2023/05/09 04:32:15;;;;;;;3.37;2.97;;;;;;;;;;4993067;28;20497;-61
2023/05/09 04:34:41;;;;;;;3.30;3.00;;;;;;;;;;4993322;28;20444;-61
2023/05/09 04:37:07;;;;;;;4.13;3.00;;;;;;;;;;4994064;28;20432;-61
2023/05/09 04:39:33;;;;;;;5.33;3.47;;;;;;;;;;4993966;28;20897;-61
2023/05/09 04:42:00;;;;;;;2.67;2.67;;;;;;;;;;4994051;28;20467;-67
2023/05/09 04:44:26;;;;;;;7.30;4.00;;;;;;;;;;4993925;28;20947;-61
2023/05/09 04:46:54;;;;;;;22.00;7.20;;;;;;;;;;4993932;28;20511;-61
2023/05/09 04:49:20;;;;;;;4.67;4.33;;;;;;;;;;4993047;28;20998;-61
2023/05/09 04:51:46;;;;;;;5.67;4.70;;;;;;;;;;4993788;28;20518;-61
2023/05/09 04:54:12;;;;;;;5.30;5.00;;;;;;;;;;4993833;28;20463;-61
2023/05/09 04:56:38;;;;;;;5.27;4.70;;;;;;;;;;4993839;28;20425;-59
2023/05/09 04:59:04;;;;;;;23.60;5.77;;;;;;;;;;4993619;28;20444;-59
2023/05/09 05:01:30;;;;;;;18.00;6.90;;;;;;;;;;4993638;28;20452;-61
2023/05/09 05:03:56;;;;;;;18.90;10.47;;;;;;;;;;4991423;28;20812;-61
2023/05/09 05:06:22;;;;;;;3.50;3.40;;;;;;;;;;4993521;28;20502;-61
2023/05/09 05:08:48;;;;;;;5.73;5.43;;;;;;;;;;4993832;28;20428;-61
2023/05/09 05:11:16;;;;;;;4.13;4.03;;;;;;;;;;4993764;28;20516;-61
2023/05/09 05:13:42;;;;;;;3.37;3.17;;;;;;;;;;4993868;28;20420;-61
2023/05/09 05:16:08;;;;;;;4.87;3.50;;;;;;;;;;4993489;28;20533;-61
2023/05/09 05:18:34;;;;;;;3.83;3.73;;;;;;;;;;4993334;28;20916;-61
2023/05/09 05:21:00;;;;;;;5.30;3.50;;;;;;;;;;4993527;28;20482;-61
2023/05/09 05:23:26;;;;;;;6.20;3.83;;;;;;;;;;4993282;28;20415;-61
2023/05/09 05:25:54;;;;;;;4.57;4.13;;;;;;;;;;4993110;28;20511;-61
2023/05/09 05:28:20;;;;;;;4.30;4.13;;;;;;;;;;4993254;28;20419;-59
2023/05/09 05:30:46;;;;;;;3.93;3.83;;;;;;;;;;4993263;28;20417;-61
2023/05/09 05:33:12;;;;;;;4.23;3.83;;;;;;;;;;4993036;28;20503;-61
2023/05/09 05:35:38;;;;;;;4.00;3.90;;;;;;;;;;4993076;28;20435;-61
2023/05/09 05:38:04;;;;;;;3.23;3.10;;;;;;;;;;4993016;28;20420;-61
2023/05/09 05:40:32;;;;;;;4.87;4.57;;;;;;;;;;4993104;28;20468;-61
2023/05/09 05:42:58;;;;;;;4.40;4.10;;;;;;;;;;4992889;28;20429;-60
2023/05/09 05:45:25;;;;;;;4.37;4.10;;;;;;;;;;4993162;28;20783;-61
2023/05/09 05:47:51;;;;;;;5.80;4.30;;;;;;;;;;4992890;28;20417;-61
2023/05/09 05:50:17;;;;;;;5.33;4.70;;;;;;;;;;4992991;28;20428;-61
2023/05/09 05:52:42;;;;;;;4.53;4.43;;;;;;;;;;4992996;28;20455;-61
2023/05/09 05:55:11;;;;;;;5.10;4.80;;;;;;;;;;4992760;28;20476;-61
2023/05/09 05:57:38;;;;;;;5.13;4.73;;;;;;;;;;4992572;28;20514;-61
2023/05/09 06:00:09;;;;;;;5.37;4.90;;;;;;;;;;4992561;28;20468;-61
2023/05/09 06:02:35;;;;;;;4.67;4.40;;;;;;;;;;4992945;28;20428;-61
2023/05/09 06:05:03;;;;;;;6.97;5.20;;;;;;;;;;4992870;28;20571;-61
2023/05/09 06:07:29;;;;;;;5.03;4.60;;;;;;;;;;4991907;28;20428;-61
2023/05/09 06:09:55;;;;;;;4.27;4.00;;;;;;;;;;4992746;28;20456;-61
2023/05/09 06:12:23;;;;;;;5.37;4.93;;;;;;;;;;4992632;28;20508;-61
2023/05/09 06:14:49;;;;;;;13.83;6.03;;;;;;;;;;4991523;28;20521;-61
2023/05/09 06:17:15;;;;;;;13.00;5.33;;;;;;;;;;4992230;28;20947;-62
2023/05/09 06:19:41;;;;;;;20.27;5.60;;;;;;;;;;4992590;28;20418;-62
2023/05/09 06:22:07;;;;;;;7.80;4.07;;;;;;;;;;4992546;28;20444;-62
2023/05/09 06:24:33;;;;;;;23.50;6.50;;;;;;;;;;4992600;28;20413;-62
2023/05/09 06:27:01;;;;;;;12.47;5.10;;;;;;;;;;4992288;28;20420;-62
2023/05/09 06:29:29;;;;;;;7.00;5.40;;;;;;;;;;4992675;28;20738;-62
2023/05/09 06:31:55;;;;;;;5.80;4.40;;;;;;;;;;4991126;28;20429;-62
2023/05/09 06:34:21;;;;;;;6.00;5.37;;;;;;;;;;4992393;28;20441;-62
2023/05/09 06:36:47;;;;;;;4.60;4.30;;;;;;;;;;4991112;28;20429;-62
2023/05/09 06:39:13;;;;;;;12.60;4.50;;;;;;;;;;4992466;28;20441;-62
2023/05/09 06:41:41;;;;;;;4.20;4.00;;;;;;;;;;4992370;28;20843;-62
2023/05/09 06:44:07;;;;;;;3.83;3.40;;;;;;;;;;4992264;28;20414;-62
2023/05/09 06:46:33;;;;;;;3.67;3.57;;;;;;;;;;4992320;28;20500;-62
2023/05/09 06:49:02;;;;;;;3.83;3.60;;;;;;;;;;4992235;28;20411;-62
2023/05/09 07:12:47;;;;;;;3.90;3.60;;;;;;;;;;4999916;23;20504;-62
2023/05/09 07:15:13;;;;;;;4.20;3.40;;;;;;;;;;4995705;28;20431;-62
2023/05/09 07:17:39;;;;;;;3.57;3.37;;;;;;;;;;4994395;28;20799;-62
2023/05/09 07:20:06;;;;;;;4.40;4.17;;;;;;;;;;4995561;28;20461;-62
2023/05/09 07:22:32;;;;;;;4.43;4.00;;;;;;;;;;4995542;28;20456;-62
2023/05/09 07:24:58;;;;;;;4.23;3.73;;;;;;;;;;4995540;28;20419;-62
2023/05/09 07:27:26;;;;;;;3.43;3.33;;;;;;;;;;4995353;28;20803;-62
2023/05/09 07:29:52;;;;;;;6.20;3.30;;;;;;;;;;4995651;28;20446;-63
2023/05/09 07:32:19;;;;;;;6.30;3.20;;;;;;;;;;4995223;28;20411;-63
2023/05/09 07:34:45;;;;;;;5.47;2.80;;;;;;;;;;4995325;28;20443;-63
2023/05/09 07:37:11;;;;;;;3.47;3.27;;;;;;;;;;4995139;28;20418;-63
2023/05/09 07:39:39;;;;;;;4.77;3.47;;;;;;;;;;4995215;28;20447;-63
2023/05/09 07:42:07;;;;;;;3.30;3.20;;;;;;;;;;4995078;28;20415;-63
2023/05/09 07:44:35;;;;;;;3.40;3.23;;;;;;;;;;4995267;28;20411;-63
2023/05/09 07:47:01;;;;;;;3.00;2.90;;;;;;;;;;4995121;28;20788;-63
2023/05/09 07:49:27;;;;;;;3.00;2.90;;;;;;;;;;4994554;28;20408;-63
2023/05/09 07:51:55;;;;;;;3.30;3.10;;;;;;;;;;4994776;28;20432;-63
2023/05/09 07:54:21;;;;;;;3.47;3.27;;;;;;;;;;4993608;28;20499;-63
2023/05/09 07:56:47;;;;;;;4.00;3.70;;;;;;;;;;4994657;28;20447;-64
2023/05/09 07:59:17;;;;;;;3.93;3.73;;;;;;;;;;4995054;28;20466;-63
2023/05/09 08:01:43;;;;;;;4.73;4.53;;;;;;;;;;4994887;28;20459;-63
2023/05/09 08:04:09;;;;;;;3.90;3.80;;;;;;;;;;4994737;28;20894;-63
2023/05/09 08:06:35;;;;;;;3.80;3.70;;;;;;;;;;4994502;28;20446;-63
2023/05/09 08:09:02;;;;;;;4.03;3.83;;;;;;;;;;4994630;28;20450;-63
2023/05/09 08:11:28;;;;;;;4.70;4.50;;;;;;;;;;4994891;28;20419;-63
2023/05/09 08:13:54;;;;;;;4.20;4.00;;;;;;;;;;4994290;28;20523;-63
2023/05/09 08:16:22;;;;;;;4.50;4.40;;;;;;;;;;4994474;28;20410;-63
2023/05/09 08:18:48;;;;;;;3.87;3.67;;;;;;;;;;4994524;28;20468;-63
2023/05/09 08:21:14;;;;;;;5.70;5.40;;;;;;;;;;4994275;28;21046;-63
2023/05/09 08:23:40;;;;;;;5.60;5.40;;;;;;;;;;4992648;28;20500;-64
2023/05/09 08:26:06;;;;;;;4.77;4.57;;;;;;;;;;4994376;28;20421;-63
2023/05/09 08:28:35;;;;;;;4.73;4.50;;;;;;;;;;4994451;28;20420;-63
2023/05/09 08:31:01;;;;;;;4.43;4.23;;;;;;;;;;4994245;28;20439;-63
2023/05/09 08:33:27;;;;;;;5.47;5.27;;;;;;;;;;4994259;28;20425;-63
2023/05/09 08:35:53;;;;;;;5.60;5.30;;;;;;;;;;4994070;28;20449;-63
2023/05/09 08:38:19;;;;;;;5.97;5.67;;;;;;;;;;4993958;28;20461;-63
2023/05/09 08:40:45;;;;;;;5.67;5.47;;;;;;;;;;4994096;28;20612;-63
2023/05/09 08:43:11;;;;;;;6.60;5.43;;;;;;;;;;4994177;28;20504;-63
2023/05/09 08:45:47;;;;;;;6.67;4.97;;;;;;;;;;4994196;28;20416;-63
2023/05/09 08:48:16;;;;;;;5.27;5.10;;;;;;;;;;4992680;28;20886;-63
2023/05/09 08:50:43;;;;;;;4.80;4.60;;;;;;;;;;4994090;28;20502;-63
2023/05/09 08:53:10;;;;;;;5.50;5.30;;;;;;;;;;4993778;28;20421;-63
2023/05/09 08:55:36;;;;;;;5.47;4.97;;;;;;;;;;4994062;28;20421;-63
2023/05/09 08:58:03;;;;;;;7.47;6.13;;;;;;;;;;4994279;28;20923;-63
2023/05/09 09:00:31;;;;;;;5.33;4.97;;;;;;;;;;4993851;28;20454;-63
2023/05/09 09:03:00;;;;;;;4.87;4.77;;;;;;;;;;4993671;28;20925;-63
2023/05/09 09:05:27;;;;;;;5.27;4.97;;;;;;;;;;4993517;28;20846;-63
2023/05/09 09:07:56;;;;;;;5.03;4.83;;;;;;;;;;4993699;28;20449;-63
2023/05/09 09:10:24;;;;;;;5.73;5.13;;;;;;;;;;4993662;28;20497;-63
2023/05/09 09:12:51;;;;;;;6.50;6.20;;;;;;;;;;4993631;28;20507;-63
2023/05/09 09:15:17;;;;;;;4.83;4.73;;;;;;;;;;4993405;28;20925;-63
2023/05/09 09:17:46;;;;;;;5.47;5.00;;;;;;;;;;4993572;28;20476;-64
2023/05/09 09:20:14;;;;;;;4.97;4.67;;;;;;;;;;4993373;28;20847;-63
2023/05/09 09:22:44;;;;;;;5.00;4.70;;;;;;;;;;4993223;28;20414;-63
2023/05/09 09:25:10;;;;;;;5.40;5.00;;;;;;;;;;4993512;28;20447;-63
2023/05/09 09:27:36;;;;;;;5.23;5.03;;;;;;;;;;4993635;28;20395;-63
2023/05/09 09:30:06;;;;;;;12.03;5.60;;;;;;;;;;4993571;28;20416;-63
2023/05/09 09:32:33;;;;;;;4.77;4.63;;;;;;;;;;4993235;28;20457;-63
2023/05/09 09:35:11;;;;;;;5.13;4.87;;;;;;;;;;4992731;28;20474;-63
2023/05/09 09:37:39;;;;;;;5.00;4.80;;;;;;;;;;4993208;28;20468;-65
2023/05/09 09:40:08;;;;;;;4.60;4.40;;;;;;;;;;4993229;28;20458;-66
2023/05/09 09:42:43;;;;;;;4.80;4.60;;;;;;;;;;4992973;28;20448;-65
2023/05/09 09:45:11;;;;;;;4.07;3.97;;;;;;;;;;4992917;28;20547;-65
2023/05/09 09:47:37;;;;;;;4.30;4.00;;;;;;;;;;4993118;28;20850;-65
2023/05/09 09:50:32;;;;;;;5.20;4.97;;;;;;;;;;4993157;28;20849;-64
2023/05/09 09:52:59;;;;;;;5.23;4.30;;;;;;;;;;4991165;28;20427;-65
2023/05/09 09:55:26;;;;;;;4.43;4.30;;;;;;;;;;4991070;28;20433;-65
2023/05/09 09:57:54;;;;;;;5.10;4.90;;;;;;;;;;4993259;28;20407;-64
2023/05/09 10:00:27;;;;;;;5.00;4.57;;;;;;;;;;4993490;28;20509;-63
2023/05/09 10:02:56;;;;;;;4.90;4.70;;;;;;;;;;4991984;28;20966;-64
2023/05/09 10:05:23;;;;;;;15.90;12.83;;;;;;;;;;4993159;28;20544;-63
2023/05/09 10:07:59;;;;;;;5.27;4.60;;;;;;;;;;4993325;28;20410;-64
2023/05/09 10:10:30;;;;;;;5.20;4.40;;;;;;;;;;4991867;28;20444;-63
2023/05/09 10:12:57;;;;;;;6.23;5.73;;;;;;;;;;4991424;28;20448;-63
2023/05/09 10:15:23;;;;;;;3.97;3.87;;;;;;;;;;4992987;28;20424;-64
2023/05/09 10:17:53;;;;;;;4.20;3.90;;;;;;;;;;4993304;28;20436;-63
2023/05/09 10:20:19;;;;;;;4.50;4.10;;;;;;;;;;4991247;28;20472;-63
2023/05/09 10:22:46;;;;;;;5.07;4.60;;;;;;;;;;4992430;28;20424;-64
2023/05/09 10:25:22;;;;;;;4.00;3.90;;;;;;;;;;4992693;28;20412;-64
2023/05/09 10:27:48;;;;;;;3.50;3.40;;;;;;;;;;4991243;28;20451;-63
2023/05/09 10:30:21;;;;;;;3.60;3.50;;;;;;;;;;4992641;28;20456;-63
2023/05/09 10:33:03;;;;;;;4.47;4.23;;;;;;;;;;4991378;28;20436;-63
2023/05/09 10:35:32;;;;;;;4.13;3.80;;;;;;;;;;4992761;28;20422;-64
2023/05/09 10:37:59;;;;;;;3.00;2.90;;;;;;;;;;4992434;28;20448;-63
2023/05/09 10:40:25;;;;;;;3.53;3.30;;;;;;;;;;4992407;28;20925;-64
2023/05/09 10:42:51;;;;;;;3.47;3.07;;;;;;;;;;4992773;28;20412;-63
2023/05/09 10:45:20;;;;;;;3.50;3.13;;;;;;;;;;4992760;28;20412;-64
2023/05/09 10:47:49;;;;;;;2.97;2.87;;;;;;;;;;4993792;28;20420;-65
2023/05/09 10:50:16;;;;;;;3.73;3.53;;;;;;;;;;4996331;28;20931;-65
2023/05/09 10:53:01;;;;;;;3.17;2.97;;;;;;;;;;4996212;28;20423;-65
2023/05/09 10:55:36;;;;;;;3.03;2.70;;;;;;;;;;4996125;28;20435;-65
2023/05/09 10:58:18;;;;;;;2.40;2.40;;;;;;;;;;4996210;28;21141;-65
2023/05/09 11:00:44;;;;;;;2.43;2.33;;;;;;;;;;4994698;28;20492;-65
2023/05/09 11:03:13;;;;;;;2.20;2.20;;;;;;;;;;4996092;28;20424;-65
2023/05/09 11:05:39;;;;;;;2.13;1.90;;;;;;;;;;4995913;28;20595;-65
2023/05/09 11:08:18;;;;;;;2.97;2.47;;;;;;;;;;4995871;28;21003;-65
2023/05/09 11:10:44;;;;;;;2.40;2.40;;;;;;;;;;4995949;28;20418;-65
2023/05/09 11:13:10;;;;;;;2.07;1.97;;;;;;;;;;4994502;28;20444;-65
2023/05/09 11:15:36;;;;;;;1.90;1.80;;;;;;;;;;4995712;28;20431;-65
2023/05/09 11:18:11;;;;;;;2.10;2.00;;;;;;;;;;4995691;28;20440;-65
2023/05/09 11:20:48;;;;;;;2.30;2.20;;;;;;;;;;4994365;28;20469;-66
2023/05/09 11:23:22;;;;;;;1.70;1.60;;;;;;;;;;4995944;28;20462;-65
2023/05/09 11:25:50;;;;;;;2.03;1.93;;;;;;;;;;4995885;28;20418;-64
2023/05/09 11:28:30;;;;;;;1.80;1.80;;;;;;;;;;4995471;28;20866;-66
2023/05/09 11:31:08;;;;;;;1.50;1.50;;;;;;;;;;4995320;28;20411;-65
2023/05/09 11:33:35;;;;;;;2.40;1.57;;;;;;;;;;4995229;28;20911;-65
2023/05/09 11:36:17;;;;;;;1.40;1.40;;;;;;;;;;4995346;28;20406;-66
2023/05/09 11:38:43;;;;;;;1.47;1.37;;;;;;;;;;4995472;28;20486;-67
2023/05/09 11:41:09;;;;;;;1.87;1.30;;;;;;;;;;4994022;28;20471;-66
2023/05/09 11:43:36;;;;;;;4.93;1.40;;;;;;;;;;4995403;28;20498;-66
2023/05/09 11:46:02;;;;;;;1.20;1.20;;;;;;;;;;4995230;28;20514;-65
2023/05/09 11:48:28;;;;;;;1.30;1.20;;;;;;;;;;4995234;28;20411;-67
2023/05/09 11:50:54;;;;;;;1.90;1.53;;;;;;;;;;4995035;28;20411;-67
2023/05/09 11:53:23;;;;;;;1.80;1.70;;;;;;;;;;4993675;28;20425;-65
2023/05/09 11:55:49;;;;;;;4.50;1.20;;;;;;;;;;4995023;28;20904;-67
2023/05/09 11:58:15;;;;;;;3.70;1.33;;;;;;;;;;4994786;28;20419;-67
2023/05/09 12:00:45;;;;;;;1.27;1.27;;;;;;;;;;4994958;28;20472;-67
2023/05/09 12:03:16;;;;;;;1.10;1.10;;;;;;;;;;4994588;28;20999;-67
2023/05/09 12:05:42;;;;;;;1.20;1.20;;;;;;;;;;4995264;28;20414;-67
2023/05/09 12:08:08;;;;;;;1.20;1.20;;;;;;;;;;4994764;28;20798;-67
2023/05/09 12:10:39;;;;;;;2.30;1.10;;;;;;;;;;4995080;28;20423;-67
2023/05/09 12:13:05;;;;;;;1.67;1.57;;;;;;;;;;4994481;28;21145;-67
2023/05/09 12:15:37;;;;;;;1.20;1.20;;;;;;;;;;4994866;28;20440;-67
2023/05/09 12:18:04;;;;;;;1.20;1.20;;;;;;;;;;4993308;28;20432;-67
2023/05/09 12:20:43;;;;;;;1.10;1.10;;;;;;;;;;4994491;28;20468;-66
2023/05/09 12:23:10;;;;;;;1.67;1.57;;;;;;;;;;4994576;28;20788;-66
2023/05/09 12:25:36;;;;;;;1.13;1.13;;;;;;;;;;4993392;28;20435;-67
2023/05/09 12:28:02;;;;;;;1.67;1.57;;;;;;;;;;4994543;28;20436;-67
2023/05/09 12:30:29;;;;;;;4.43;1.50;;;;;;;;;;4994582;28;20439;-67
2023/05/09 12:32:55;;;;;;;1.10;1.10;;;;;;;;;;4993250;28;20437;-66
2023/05/09 12:35:24;;;;;;;3.40;1.30;;;;;;;;;;4993093;28;20456;-66
2023/05/09 12:37:58;;;;;;;1.40;1.30;;;;;;;;;;4993086;28;20433;-66
2023/05/09 12:40:24;;;;;;;1.33;1.23;;;;;;;;;;4994433;28;22088;-66
2023/05/09 12:42:53;;;;;;;1.40;1.40;;;;;;;;;;4994080;28;20504;-65
2023/05/09 12:45:19;;;;;;;1.53;1.43;;;;;;;;;;4994153;28;20401;-66
2023/05/09 12:47:45;;;;;;;1.37;1.27;;;;;;;;;;4993893;28;20461;-66
2023/05/09 12:50:12;;;;;;;3.10;1.50;;;;;;;;;;4994083;28;20885;-66
2023/05/09 12:52:39;;;;;;;2.63;1.07;;;;;;;;;;4994052;28;20850;-66
2023/05/09 12:55:06;;;;;;;2.60;1.07;;;;;;;;;;4993055;28;20794;-65
2023/05/09 12:57:32;;;;;;;1.60;1.60;;;;;;;;;;4993994;28;20437;-66
2023/05/09 12:59:58;;;;;;;1.20;1.20;;;;;;;;;;4993463;28;20424;-66
2023/05/09 13:02:28;;;;;;;2.93;1.70;;;;;;;;;;4993755;28;20427;-66
2023/05/09 13:05:09;;;;;;;1.27;1.20;;;;;;;;;;4993838;28;20416;-66
2023/05/09 13:07:45;;;;;;;1.03;1.03;;;;;;;;;;4992644;28;20488;-66
2023/05/09 13:10:12;;;;;;;3.70;1.50;;;;;;;;;;4992971;28;20427;-66
2023/05/09 13:12:43;;;;;;;4.50;1.17;;;;;;;;;;4993353;28;20436;-66
2023/05/09 13:15:10;;;;;;;4.17;1.40;;;;;;;;;;4993456;28;20425;-66
2023/05/09 13:17:36;;;;;;;1.50;1.50;;;;;;;;;;4993767;28;20539;-66
2023/05/09 13:20:03;;;;;;;1.53;1.10;;;;;;;;;;4993354;28;20491;-66
2023/05/09 13:22:29;;;;;;;1.10;1.10;;;;;;;;;;4992150;28;20928;-65
2023/05/09 13:24:55;;;;;;;2.20;1.20;;;;;;;;;;4993277;28;20440;-66
2023/05/09 13:27:23;;;;;;;1.60;1.10;;;;;;;;;;4993836;28;20410;-65
2023/05/09 13:29:49;;;;;;;1.20;1.10;;;;;;;;;;4993183;28;20709;-65
2023/05/09 13:32:15;;;;;;;2.47;0.90;;;;;;;;;;4993307;28;20580;-65
2023/05/09 13:34:44;;;;;;;1.60;0.97;;;;;;;;;;4992065;28;20433;-65
2023/05/09 13:37:10;;;;;;;2.10;1.27;;;;;;;;;;4992945;28;20449;-65
2023/05/09 13:39:36;;;;;;;0.90;0.80;;;;;;;;;;4993273;28;20424;-65
2023/05/09 13:42:02;;;;;;;1.00;1.00;;;;;;;;;;4993470;28;20489;-65
2023/05/09 13:44:28;;;;;;;1.50;1.40;;;;;;;;;;4993063;28;20440;-66
2023/05/09 13:46:57;;;;;;;4.33;1.00;;;;;;;;;;4993083;28;20461;-65
2023/05/09 13:49:23;;;;;;;1.20;1.00;;;;;;;;;;4992835;28;20457;-64
2023/05/09 13:51:49;;;;;;;1.10;1.10;;;;;;;;;;4992974;28;20476;-66
2023/05/09 13:54:18;;;;;;;1.93;1.10;;;;;;;;;;4992556;28;20420;-66
2023/05/09 13:56:44;;;;;;;4.17;1.20;;;;;;;;;;4992554;28;20838;-66
2023/05/09 13:59:11;;;;;;;2.33;1.33;;;;;;;;;;4993095;28;20448;-67
2023/05/09 14:01:37;;;;;;;1.30;1.30;;;;;;;;;;4992949;28;20910;-67
2023/05/09 14:04:03;;;;;;;3.80;1.53;;;;;;;;;;4993010;28;20552;-66
2023/05/09 14:06:29;;;;;;;1.20;1.20;;;;;;;;;;4992646;28;20411;-66
2023/05/09 14:08:58;;;;;;;1.50;1.40;;;;;;;;;;4991693;28;20439;-66
2023/05/09 14:11:24;;;;;;;2.10;1.20;;;;;;;;;;4992854;28;20413;-66
2023/05/09 14:13:51;;;;;;;1.40;1.30;;;;;;;;;;4992768;28;20502;-66
2023/05/09 14:16:17;;;;;;;1.70;1.60;;;;;;;;;;4992719;28;20525;-66
2023/05/09 14:18:43;;;;;;;1.93;1.47;;;;;;;;;;4992642;28;20448;-63
2023/05/09 14:21:09;;;;;;;1.90;1.57;;;;;;;;;;4992719;28;20525;-62
2023/05/09 14:23:35;;;;;;;1.37;1.37;;;;;;;;;;4996898;28;20983;-64
2023/05/09 14:26:01;;;;;;;3.47;1.33;;;;;;;;;;4996801;28;20414;-66
2023/05/09 14:28:27;;;;;;;2.50;1.77;;;;;;;;;;4996815;28;20421;-65
2023/05/09 14:30:56;;;;;;;2.57;1.47;;;;;;;;;;4996736;28;20432;-65
2023/05/09 14:33:22;;;;;;;1.77;1.70;;;;;;;;;;4996586;28;20444;-64
2023/05/09 14:35:51;;;;;;;1.70;1.70;;;;;;;;;;4996744;28;20886;-65
2023/05/09 14:38:20;;;;;;;2.20;1.73;;;;;;;;;;4996573;28;20472;-65
2023/05/09 14:40:46;;;;;;;5.70;1.77;;;;;;;;;;4996486;28;21029;-64
2023/05/09 14:43:12;;;;;;;2.30;2.10;;;;;;;;;;4996525;28;20575;-64
2023/05/09 14:45:38;;;;;;;2.53;2.53;;;;;;;;;;4995863;28;20444;-64
2023/05/09 14:48:06;;;;;;;5.60;2.43;;;;;;;;;;4996326;28;20901;-64
2023/05/09 14:50:32;;;;;;;2.87;2.77;;;;;;;;;;4996332;28;20788;-63
2023/05/09 14:52:59;;;;;;;3.23;3.10;;;;;;;;;;4996413;28;20420;-64
2023/05/09 14:55:26;;;;;;;4.20;4.00;;;;;;;;;;4996345;28;20443;-64
2023/05/09 14:57:55;;;;;;;4.73;4.53;;;;;;;;;;4996095;28;20866;-64
2023/05/09 15:00:21;;;;;;;5.30;3.60;;;;;;;;;;4996086;28;20991;-65
2023/05/09 15:02:47;;;;;;;3.90;3.70;;;;;;;;;;4996352;28;20824;-62
2023/05/09 15:05:13;;;;;;;4.20;4.00;;;;;;;;;;4996164;28;20446;-64
2023/05/09 15:07:42;;;;;;;2.70;2.70;;;;;;;;;;4994807;28;20898;-64